sensor_id;sensor_type;location;lat;lon;timestamp;P1;durP1;ratioP1;P2;durP2;ratioP2
47922;SDS011;33688;44.354;9.228;2023-04-15T00:00:49;2.15;;;0.73;;
47922;SDS011;33688;44.354;9.228;2023-04-15T00:03:16;3.17;;;0.77;;
47922;SDS011;33688;44.354;9.228;2023-04-15T00:05:43;2.03;;;0.63;;
47922;SDS011;33688;44.354;9.228;2023-04-15T00:08:08;1.90;;;0.50;;
47922;SDS011;33688;44.354;9.228;2023-04-15T00:10:35;0.85;;;0.50;;
47922;SDS011;33688;44.354;9.228;2023-04-15T00:13:01;1.38;;;0.60;;
47922;SDS011;33688;44.354;9.228;2023-04-15T00:15:28;2.08;;;0.57;;
47922;SDS011;33688;44.354;9.228;2023-04-15T00:17:53;1.00;;;0.55;;
47922;SDS011;33688;44.354;9.228;2023-04-15T00:20:19;2.17;;;0.80;;
47922;SDS011;33688;44.354;9.228;2023-04-15T00:22:45;1.33;;;0.52;;
47922;SDS011;33688;44.354;9.228;2023-04-15T00:25:11;1.55;;;0.65;;
47922;SDS011;33688;44.354;9.228;2023-04-15T00:27:37;1.17;;;0.57;;
47922;SDS011;33688;44.354;9.228;2023-04-15T00:30:03;1.67;;;0.65;;
47922;SDS011;33688;44.354;9.228;2023-04-15T00:32:29;1.42;;;0.52;;
47922;SDS011;33688;44.354;9.228;2023-04-15T00:34:55;1.48;;;0.50;;
47922;SDS011;33688;44.354;9.228;2023-04-15T00:37:22;1.63;;;0.55;;
47922;SDS011;33688;44.354;9.228;2023-04-15T00:39:49;1.55;;;0.50;;
47922;SDS011;33688;44.354;9.228;2023-04-15T00:42:14;0.43;;;0.43;;
47922;SDS011;33688;44.354;9.228;2023-04-15T00:44:40;2.05;;;0.95;;
47922;SDS011;33688;44.354;9.228;2023-04-15T00:47:06;2.22;;;0.63;;
47922;SDS011;33688;44.354;9.228;2023-04-15T00:49:32;1.35;;;0.52;;
47922;SDS011;33688;44.354;9.228;2023-04-15T00:52:02;0.68;;;0.32;;
47922;SDS011;33688;44.354;9.228;2023-04-15T00:54:28;2.58;;;0.50;;
47922;SDS011;33688;44.354;9.228;2023-04-15T00:56:55;1.40;;;0.55;;
47922;SDS011;33688;44.354;9.228;2023-04-15T00:59:22;2.65;;;0.65;;
47922;SDS011;33688;44.354;9.228;2023-04-15T01:01:49;1.75;;;0.60;;
47922;SDS011;33688;44.354;9.228;2023-04-15T01:04:15;1.30;;;0.55;;
47922;SDS011;33688;44.354;9.228;2023-04-15T01:06:42;1.23;;;0.50;;
47922;SDS011;33688;44.354;9.228;2023-04-15T01:09:09;2.25;;;0.70;;
47922;SDS011;33688;44.354;9.228;2023-04-15T01:11:38;1.65;;;0.63;;
47922;SDS011;33688;44.354;9.228;2023-04-15T01:14:08;2.15;;;0.50;;
47922;SDS011;33688;44.354;9.228;2023-04-15T01:16:35;0.88;;;0.45;;
47922;SDS011;33688;44.354;9.228;2023-04-15T01:19:05;0.70;;;0.50;;
47922;SDS011;33688;44.354;9.228;2023-04-15T01:21:36;1.23;;;0.52;;
47922;SDS011;33688;44.354;9.228;2023-04-15T01:24:07;0.70;;;0.60;;
47922;SDS011;33688;44.354;9.228;2023-04-15T01:26:36;2.33;;;0.63;;
47922;SDS011;33688;44.354;9.228;2023-04-15T01:29:05;1.75;;;0.60;;
47922;SDS011;33688;44.354;9.228;2023-04-15T01:31:31;1.77;;;0.52;;
47922;SDS011;33688;44.354;9.228;2023-04-15T01:33:58;0.50;;;0.35;;
47922;SDS011;33688;44.354;9.228;2023-04-15T01:36:26;1.27;;;0.60;;
47922;SDS011;33688;44.354;9.228;2023-04-15T01:38:52;1.15;;;0.47;;
47922;SDS011;33688;44.354;9.228;2023-04-15T01:41:26;1.52;;;0.40;;
47922;SDS011;33688;44.354;9.228;2023-04-15T01:43:52;3.63;;;0.40;;
47922;SDS011;33688;44.354;9.228;2023-04-15T01:46:18;1.02;;;0.65;;
47922;SDS011;33688;44.354;9.228;2023-04-15T01:48:44;0.95;;;0.60;;
47922;SDS011;33688;44.354;9.228;2023-04-15T01:51:09;0.93;;;0.40;;
47922;SDS011;33688;44.354;9.228;2023-04-15T01:53:35;0.70;;;0.40;;
47922;SDS011;33688;44.354;9.228;2023-04-15T01:56:01;1.52;;;0.50;;
47922;SDS011;33688;44.354;9.228;2023-04-15T01:58:27;1.13;;;0.43;;
47922;SDS011;33688;44.354;9.228;2023-04-15T02:00:53;1.10;;;0.55;;
47922;SDS011;33688;44.354;9.228;2023-04-15T02:03:18;0.70;;;0.50;;
47922;SDS011;33688;44.354;9.228;2023-04-15T02:05:45;1.25;;;0.50;;
47922;SDS011;33688;44.354;9.228;2023-04-15T02:08:10;0.90;;;0.38;;
47922;SDS011;33688;44.354;9.228;2023-04-15T02:10:38;1.80;;;0.65;;
47922;SDS011;33688;44.354;9.228;2023-04-15T02:13:04;1.83;;;0.40;;
47922;SDS011;33688;44.354;9.228;2023-04-15T02:15:29;2.00;;;0.90;;
47922;SDS011;33688;44.354;9.228;2023-04-15T02:17:55;1.13;;;0.43;;
47922;SDS011;33688;44.354;9.228;2023-04-15T02:20:21;0.70;;;0.30;;
47922;SDS011;33688;44.354;9.228;2023-04-15T02:22:47;0.77;;;0.52;;
47922;SDS011;33688;44.354;9.228;2023-04-15T02:25:13;2.20;;;0.60;;
47922;SDS011;33688;44.354;9.228;2023-04-15T02:27:41;1.90;;;0.70;;
47922;SDS011;33688;44.354;9.228;2023-04-15T02:30:08;5.05;;;0.60;;
47922;SDS011;33688;44.354;9.228;2023-04-15T02:32:33;0.68;;;0.45;;
47922;SDS011;33688;44.354;9.228;2023-04-15T02:37:32;1.95;;;0.65;;
47922;SDS011;33688;44.354;9.228;2023-04-15T02:40:02;1.80;;;0.50;;
47922;SDS011;33688;44.354;9.228;2023-04-15T02:42:29;1.00;;;0.45;;
47922;SDS011;33688;44.354;9.228;2023-04-15T02:44:58;1.02;;;0.65;;
47922;SDS011;33688;44.354;9.228;2023-04-15T02:47:29;0.55;;;0.50;;
47922;SDS011;33688;44.354;9.228;2023-04-15T02:49:54;0.50;;;0.30;;
47922;SDS011;33688;44.354;9.228;2023-04-15T02:52:20;0.40;;;0.40;;
47922;SDS011;33688;44.354;9.228;2023-04-15T02:54:46;0.82;;;0.40;;
47922;SDS011;33688;44.354;9.228;2023-04-15T03:00:05;0.82;;;0.28;;
47922;SDS011;33688;44.354;9.228;2023-04-15T03:02:35;1.70;;;0.43;;
47922;SDS011;33688;44.354;9.228;2023-04-15T03:05:04;4.13;;;0.68;;
47922;SDS011;33688;44.354;9.228;2023-04-15T03:07:31;1.90;;;0.60;;
47922;SDS011;33688;44.354;9.228;2023-04-15T03:09:57;0.65;;;0.30;;
47922;SDS011;33688;44.354;9.228;2023-04-15T03:12:22;1.23;;;0.63;;
47922;SDS011;33688;44.354;9.228;2023-04-15T03:14:50;1.05;;;0.60;;
47922;SDS011;33688;44.354;9.228;2023-04-15T03:17:16;3.00;;;0.73;;
47922;SDS011;33688;44.354;9.228;2023-04-15T03:19:43;0.47;;;0.43;;
47922;SDS011;33688;44.354;9.228;2023-04-15T03:22:10;0.65;;;0.32;;
47922;SDS011;33688;44.354;9.228;2023-04-15T03:24:35;0.77;;;0.40;;
47922;SDS011;33688;44.354;9.228;2023-04-15T03:27:02;0.70;;;0.43;;
47922;SDS011;33688;44.354;9.228;2023-04-15T03:29:28;1.80;;;0.50;;
47922;SDS011;33688;44.354;9.228;2023-04-15T03:31:55;1.33;;;0.50;;
47922;SDS011;33688;44.354;9.228;2023-04-15T03:34:21;0.95;;;0.43;;
47922;SDS011;33688;44.354;9.228;2023-04-15T03:36:47;0.57;;;0.55;;
47922;SDS011;33688;44.354;9.228;2023-04-15T03:39:13;1.20;;;0.47;;
47922;SDS011;33688;44.354;9.228;2023-04-15T03:41:38;0.90;;;0.45;;
47922;SDS011;33688;44.354;9.228;2023-04-15T03:44:05;0.43;;;0.20;;
47922;SDS011;33688;44.354;9.228;2023-04-15T03:46:31;0.68;;;0.30;;
47922;SDS011;33688;44.354;9.228;2023-04-15T03:48:57;1.25;;;0.52;;
47922;SDS011;33688;44.354;9.228;2023-04-15T03:51:23;1.85;;;0.52;;
47922;SDS011;33688;44.354;9.228;2023-04-15T03:53:49;1.13;;;0.40;;
47922;SDS011;33688;44.354;9.228;2023-04-15T03:56:14;0.55;;;0.40;;
47922;SDS011;33688;44.354;9.228;2023-04-15T03:58:40;0.75;;;0.40;;
47922;SDS011;33688;44.354;9.228;2023-04-15T04:03:50;0.68;;;0.45;;
47922;SDS011;33688;44.354;9.228;2023-04-15T04:09:04;0.77;;;0.43;;
47922;SDS011;33688;44.354;9.228;2023-04-15T04:11:29;1.35;;;0.45;;
47922;SDS011;33688;44.354;9.228;2023-04-15T04:13:55;1.05;;;0.73;;
47922;SDS011;33688;44.354;9.228;2023-04-15T04:16:21;0.25;;;0.20;;
47922;SDS011;33688;44.354;9.228;2023-04-15T04:18:46;0.32;;;0.20;;
47922;SDS011;33688;44.354;9.228;2023-04-15T04:21:13;0.93;;;0.50;;
47922;SDS011;33688;44.354;9.228;2023-04-15T04:23:39;0.32;;;0.30;;
47922;SDS011;33688;44.354;9.228;2023-04-15T04:26:04;0.38;;;0.30;;
47922;SDS011;33688;44.354;9.228;2023-04-15T04:28:30;1.80;;;0.68;;
47922;SDS011;33688;44.354;9.228;2023-04-15T04:30:56;0.65;;;0.28;;
47922;SDS011;33688;44.354;9.228;2023-04-15T04:33:22;1.25;;;0.50;;
47922;SDS011;33688;44.354;9.228;2023-04-15T04:35:48;1.77;;;0.50;;
47922;SDS011;33688;44.354;9.228;2023-04-15T04:38:13;3.38;;;0.50;;
47922;SDS011;33688;44.354;9.228;2023-04-15T04:40:39;0.22;;;0.22;;
47922;SDS011;33688;44.354;9.228;2023-04-15T04:43:05;0.60;;;0.40;;
47922;SDS011;33688;44.354;9.228;2023-04-15T04:45:30;1.92;;;0.50;;
47922;SDS011;33688;44.354;9.228;2023-04-15T04:47:56;1.30;;;0.57;;
47922;SDS011;33688;44.354;9.228;2023-04-15T04:50:23;1.40;;;0.88;;
47922;SDS011;33688;44.354;9.228;2023-04-15T04:52:49;1.30;;;0.57;;
47922;SDS011;33688;44.354;9.228;2023-04-15T04:55:14;1.45;;;0.70;;
47922;SDS011;33688;44.354;9.228;2023-04-15T04:57:40;0.85;;;0.50;;
47922;SDS011;33688;44.354;9.228;2023-04-15T05:00:07;1.70;;;0.65;;
47922;SDS011;33688;44.354;9.228;2023-04-15T05:02:33;0.70;;;0.60;;
47922;SDS011;33688;44.354;9.228;2023-04-15T05:04:59;1.40;;;0.90;;
47922;SDS011;33688;44.354;9.228;2023-04-15T05:07:25;1.15;;;1.00;;
47922;SDS011;33688;44.354;9.228;2023-04-15T05:09:51;1.77;;;1.00;;
47922;SDS011;33688;44.354;9.228;2023-04-15T05:12:18;1.40;;;1.00;;
47922;SDS011;33688;44.354;9.228;2023-04-15T05:14:44;1.48;;;1.00;;
47922;SDS011;33688;44.354;9.228;2023-04-15T05:17:10;2.17;;;1.40;;
47922;SDS011;33688;44.354;9.228;2023-04-15T05:19:36;1.80;;;1.17;;
47922;SDS011;33688;44.354;9.228;2023-04-15T05:22:03;1.92;;;1.08;;
47922;SDS011;33688;44.354;9.228;2023-04-15T05:26:59;1.90;;;1.13;;
47922;SDS011;33688;44.354;9.228;2023-04-15T05:29:26;1.27;;;0.90;;
47922;SDS011;33688;44.354;9.228;2023-04-15T05:31:51;2.05;;;1.05;;
47922;SDS011;33688;44.354;9.228;2023-04-15T05:34:19;4.22;;;2.00;;
47922;SDS011;33688;44.354;9.228;2023-04-15T05:36:44;1.65;;;0.90;;
47922;SDS011;33688;44.354;9.228;2023-04-15T05:39:10;2.40;;;1.10;;
47922;SDS011;33688;44.354;9.228;2023-04-15T05:41:37;2.33;;;1.30;;
47922;SDS011;33688;44.354;9.228;2023-04-15T05:44:02;2.50;;;1.23;;
47922;SDS011;33688;44.354;9.228;2023-04-15T05:46:29;1.38;;;1.00;;
47922;SDS011;33688;44.354;9.228;2023-04-15T05:48:56;2.45;;;1.05;;
47922;SDS011;33688;44.354;9.228;2023-04-15T05:51:21;1.50;;;1.00;;
47922;SDS011;33688;44.354;9.228;2023-04-15T05:53:47;1.58;;;0.95;;
47922;SDS011;33688;44.354;9.228;2023-04-15T05:56:12;1.98;;;0.95;;
47922;SDS011;33688;44.354;9.228;2023-04-15T05:58:38;1.00;;;0.70;;
47922;SDS011;33688;44.354;9.228;2023-04-15T06:01:06;2.92;;;1.13;;
47922;SDS011;33688;44.354;9.228;2023-04-15T06:03:32;1.80;;;1.00;;
47922;SDS011;33688;44.354;9.228;2023-04-15T06:05:58;1.67;;;0.98;;
47922;SDS011;33688;44.354;9.228;2023-04-15T06:08:25;1.73;;;1.23;;
47922;SDS011;33688;44.354;9.228;2023-04-15T06:10:50;1.33;;;1.10;;
47922;SDS011;33688;44.354;9.228;2023-04-15T06:13:16;1.35;;;0.73;;
47922;SDS011;33688;44.354;9.228;2023-04-15T06:15:42;1.35;;;0.88;;
47922;SDS011;33688;44.354;9.228;2023-04-15T06:18:07;1.50;;;0.90;;
47922;SDS011;33688;44.354;9.228;2023-04-15T06:20:33;2.00;;;1.10;;
47922;SDS011;33688;44.354;9.228;2023-04-15T06:22:59;1.13;;;0.90;;
47922;SDS011;33688;44.354;9.228;2023-04-15T06:25:25;1.45;;;0.98;;
47922;SDS011;33688;44.354;9.228;2023-04-15T06:27:51;2.35;;;0.80;;
47922;SDS011;33688;44.354;9.228;2023-04-15T06:30:17;2.72;;;1.08;;
47922;SDS011;33688;44.354;9.228;2023-04-15T06:32:43;2.17;;;0.82;;
47922;SDS011;33688;44.354;9.228;2023-04-15T06:35:09;1.75;;;1.00;;
47922;SDS011;33688;44.354;9.228;2023-04-15T06:37:35;1.15;;;0.77;;
47922;SDS011;33688;44.354;9.228;2023-04-15T06:40:01;2.03;;;1.02;;
47922;SDS011;33688;44.354;9.228;2023-04-15T06:42:29;1.55;;;0.90;;
47922;SDS011;33688;44.354;9.228;2023-04-15T06:44:57;3.05;;;1.02;;
47922;SDS011;33688;44.354;9.228;2023-04-15T06:47:22;0.95;;;0.75;;
47922;SDS011;33688;44.354;9.228;2023-04-15T06:49:48;1.88;;;0.90;;
47922;SDS011;33688;44.354;9.228;2023-04-15T06:52:14;1.02;;;0.80;;
47922;SDS011;33688;44.354;9.228;2023-04-15T06:54:41;1.50;;;0.88;;
47922;SDS011;33688;44.354;9.228;2023-04-15T06:57:07;2.90;;;1.23;;
47922;SDS011;33688;44.354;9.228;2023-04-15T06:59:34;2.60;;;0.80;;
47922;SDS011;33688;44.354;9.228;2023-04-15T07:01:59;1.52;;;0.77;;
47922;SDS011;33688;44.354;9.228;2023-04-15T07:04:25;1.70;;;1.35;;
47922;SDS011;33688;44.354;9.228;2023-04-15T07:06:52;2.22;;;0.90;;
47922;SDS011;33688;44.354;9.228;2023-04-15T07:09:20;2.40;;;0.88;;
47922;SDS011;33688;44.354;9.228;2023-04-15T07:11:46;2.58;;;1.23;;
47922;SDS011;33688;44.354;9.228;2023-04-15T07:14:13;2.90;;;1.20;;
47922;SDS011;33688;44.354;9.228;2023-04-15T07:16:38;2.83;;;0.98;;
47922;SDS011;33688;44.354;9.228;2023-04-15T07:19:04;2.70;;;0.98;;
47922;SDS011;33688;44.354;9.228;2023-04-15T07:21:30;0.77;;;0.55;;
47922;SDS011;33688;44.354;9.228;2023-04-15T07:23:56;0.95;;;0.60;;
47922;SDS011;33688;44.354;9.228;2023-04-15T07:26:23;2.03;;;0.70;;
47922;SDS011;33688;44.354;9.228;2023-04-15T07:28:49;2.47;;;0.60;;
47922;SDS011;33688;44.354;9.228;2023-04-15T07:31:15;2.40;;;1.10;;
47922;SDS011;33688;44.354;9.228;2023-04-15T07:33:41;1.20;;;0.77;;
47922;SDS011;33688;44.354;9.228;2023-04-15T07:36:09;2.28;;;0.80;;
47922;SDS011;33688;44.354;9.228;2023-04-15T07:38:34;2.28;;;0.90;;
47922;SDS011;33688;44.354;9.228;2023-04-15T07:41:00;2.17;;;1.00;;
47922;SDS011;33688;44.354;9.228;2023-04-15T07:43:26;1.35;;;0.60;;
47922;SDS011;33688;44.354;9.228;2023-04-15T07:45:52;1.05;;;0.85;;
47922;SDS011;33688;44.354;9.228;2023-04-15T07:48:19;2.72;;;0.80;;
47922;SDS011;33688;44.354;9.228;2023-04-15T07:50:45;2.30;;;0.73;;
47922;SDS011;33688;44.354;9.228;2023-04-15T07:53:10;0.98;;;0.82;;
47922;SDS011;33688;44.354;9.228;2023-04-15T07:55:36;6.55;;;0.63;;
47922;SDS011;33688;44.354;9.228;2023-04-15T07:58:02;3.10;;;0.80;;
47922;SDS011;33688;44.354;9.228;2023-04-15T08:00:27;2.13;;;0.90;;
47922;SDS011;33688;44.354;9.228;2023-04-15T08:02:53;2.95;;;0.70;;
47922;SDS011;33688;44.354;9.228;2023-04-15T08:07:50;1.27;;;0.70;;
47922;SDS011;33688;44.354;9.228;2023-04-15T08:10:16;1.92;;;0.63;;
47922;SDS011;33688;44.354;9.228;2023-04-15T08:12:42;4.10;;;0.68;;
47922;SDS011;33688;44.354;9.228;2023-04-15T08:15:08;2.00;;;0.73;;
47922;SDS011;33688;44.354;9.228;2023-04-15T08:17:34;1.70;;;0.77;;
47922;SDS011;33688;44.354;9.228;2023-04-15T08:20:00;1.90;;;0.90;;
47922;SDS011;33688;44.354;9.228;2023-04-15T08:22:25;1.38;;;0.60;;
47922;SDS011;33688;44.354;9.228;2023-04-15T08:24:51;2.30;;;0.80;;
47922;SDS011;33688;44.354;9.228;2023-04-15T08:27:18;1.70;;;0.60;;
47922;SDS011;33688;44.354;9.228;2023-04-15T08:29:44;1.27;;;0.80;;
47922;SDS011;33688;44.354;9.228;2023-04-15T08:32:09;1.73;;;0.60;;
47922;SDS011;33688;44.354;9.228;2023-04-15T08:34:35;3.05;;;0.60;;
47922;SDS011;33688;44.354;9.228;2023-04-15T08:37:02;1.85;;;0.70;;
47922;SDS011;33688;44.354;9.228;2023-04-15T08:39:28;2.63;;;0.90;;
47922;SDS011;33688;44.354;9.228;2023-04-15T08:42:00;1.63;;;0.63;;
47922;SDS011;33688;44.354;9.228;2023-04-15T08:44:28;2.22;;;0.70;;
47922;SDS011;33688;44.354;9.228;2023-04-15T08:46:55;1.08;;;0.68;;
47922;SDS011;33688;44.354;9.228;2023-04-15T08:49:21;2.03;;;0.77;;
47922;SDS011;33688;44.354;9.228;2023-04-15T08:51:51;1.70;;;0.70;;
47922;SDS011;33688;44.354;9.228;2023-04-15T08:54:17;2.92;;;0.77;;
47922;SDS011;33688;44.354;9.228;2023-04-15T08:56:44;1.00;;;0.50;;
47922;SDS011;33688;44.354;9.228;2023-04-15T08:59:10;2.17;;;0.75;;
47922;SDS011;33688;44.354;9.228;2023-04-15T09:01:37;3.03;;;0.98;;
47922;SDS011;33688;44.354;9.228;2023-04-15T09:04:03;0.80;;;0.75;;
47922;SDS011;33688;44.354;9.228;2023-04-15T09:06:32;0.88;;;0.60;;
47922;SDS011;33688;44.354;9.228;2023-04-15T09:08:58;3.65;;;0.70;;
47922;SDS011;33688;44.354;9.228;2023-04-15T09:11:25;2.53;;;0.68;;
47922;SDS011;33688;44.354;9.228;2023-04-15T09:13:53;3.65;;;0.82;;
47922;SDS011;33688;44.354;9.228;2023-04-15T09:16:18;2.97;;;0.60;;
47922;SDS011;33688;44.354;9.228;2023-04-15T09:18:44;2.00;;;0.70;;
47922;SDS011;33688;44.354;9.228;2023-04-15T09:21:10;2.60;;;0.95;;
47922;SDS011;33688;44.354;9.228;2023-04-15T09:23:38;1.45;;;0.77;;
47922;SDS011;33688;44.354;9.228;2023-04-15T09:26:05;1.52;;;0.70;;
47922;SDS011;33688;44.354;9.228;2023-04-15T09:28:31;2.05;;;0.60;;
47922;SDS011;33688;44.354;9.228;2023-04-15T09:30:57;1.10;;;0.60;;
47922;SDS011;33688;44.354;9.228;2023-04-15T09:33:24;0.80;;;0.57;;
47922;SDS011;33688;44.354;9.228;2023-04-15T09:36:04;3.25;;;0.60;;
47922;SDS011;33688;44.354;9.228;2023-04-15T09:38:31;2.28;;;0.60;;
47922;SDS011;33688;44.354;9.228;2023-04-15T09:40:57;0.75;;;0.50;;
47922;SDS011;33688;44.354;9.228;2023-04-15T09:43:36;0.90;;;0.50;;
47922;SDS011;33688;44.354;9.228;2023-04-15T09:46:04;1.87;;;0.50;;
47922;SDS011;33688;44.354;9.228;2023-04-15T09:51:00;1.17;;;0.57;;
47922;SDS011;33688;44.354;9.228;2023-04-15T09:53:27;1.20;;;0.50;;
47922;SDS011;33688;44.354;9.228;2023-04-15T09:55:54;1.48;;;0.70;;
47922;SDS011;33688;44.354;9.228;2023-04-15T09:58:22;1.70;;;0.68;;
47922;SDS011;33688;44.354;9.228;2023-04-15T10:00:56;0.80;;;0.45;;
47922;SDS011;33688;44.354;9.228;2023-04-15T10:03:25;1.13;;;0.60;;
47922;SDS011;33688;44.354;9.228;2023-04-15T10:05:53;1.58;;;0.60;;
47922;SDS011;33688;44.354;9.228;2023-04-15T10:08:32;3.22;;;0.52;;
47922;SDS011;33688;44.354;9.228;2023-04-15T10:13:43;1.40;;;0.70;;
47922;SDS011;33688;44.354;9.228;2023-04-15T10:16:11;0.63;;;0.55;;
47922;SDS011;33688;44.354;9.228;2023-04-15T10:18:43;2.55;;;0.60;;
47922;SDS011;33688;44.354;9.228;2023-04-15T10:21:10;3.65;;;1.10;;
47922;SDS011;33688;44.354;9.228;2023-04-15T10:23:38;1.60;;;0.52;;
47922;SDS011;33688;44.354;9.228;2023-04-15T10:26:05;1.33;;;0.40;;
47922;SDS011;33688;44.354;9.228;2023-04-15T10:28:33;1.15;;;0.45;;
47922;SDS011;33688;44.354;9.228;2023-04-15T10:30:59;1.60;;;0.93;;
47922;SDS011;33688;44.354;9.228;2023-04-15T10:33:25;1.52;;;0.75;;
47922;SDS011;33688;44.354;9.228;2023-04-15T10:35:52;0.40;;;0.30;;
47922;SDS011;33688;44.354;9.228;2023-04-15T10:41:18;1.58;;;0.63;;
47922;SDS011;33688;44.354;9.228;2023-04-15T10:43:50;1.35;;;0.60;;
47922;SDS011;33688;44.354;9.228;2023-04-15T10:46:33;0.65;;;0.40;;
47922;SDS011;33688;44.354;9.228;2023-04-15T10:49:10;2.42;;;1.00;;
47922;SDS011;33688;44.354;9.228;2023-04-15T10:51:38;1.00;;;0.60;;
47922;SDS011;33688;44.354;9.228;2023-04-15T10:59:09;1.60;;;0.57;;
47922;SDS011;33688;44.354;9.228;2023-04-15T11:01:53;1.58;;;0.60;;
47922;SDS011;33688;44.354;9.228;2023-04-15T11:07:32;2.33;;;0.60;;
47922;SDS011;33688;44.354;9.228;2023-04-15T11:10:02;1.45;;;0.70;;
47922;SDS011;33688;44.354;9.228;2023-04-15T11:12:36;2.03;;;0.40;;
47922;SDS011;33688;44.354;9.228;2023-04-15T11:17:52;1.58;;;0.60;;
47922;SDS011;33688;44.354;9.228;2023-04-15T11:20:19;0.95;;;0.47;;
47922;SDS011;33688;44.354;9.228;2023-04-15T11:22:49;0.75;;;0.40;;
47922;SDS011;33688;44.354;9.228;2023-04-15T11:25:26;1.70;;;0.70;;
47922;SDS011;33688;44.354;9.228;2023-04-15T11:27:53;0.93;;;0.32;;
47922;SDS011;33688;44.354;9.228;2023-04-15T11:30:24;1.48;;;0.52;;
47922;SDS011;33688;44.354;9.228;2023-04-15T11:32:51;1.40;;;0.70;;
47922;SDS011;33688;44.354;9.228;2023-04-15T11:35:18;0.80;;;0.63;;
47922;SDS011;33688;44.354;9.228;2023-04-15T11:37:45;0.98;;;0.45;;
47922;SDS011;33688;44.354;9.228;2023-04-15T11:40:11;3.35;;;0.55;;
47922;SDS011;33688;44.354;9.228;2023-04-15T11:42:38;1.38;;;0.55;;
47922;SDS011;33688;44.354;9.228;2023-04-15T11:47:33;0.70;;;0.50;;
47922;SDS011;33688;44.354;9.228;2023-04-15T11:52:41;1.00;;;0.52;;
47922;SDS011;33688;44.354;9.228;2023-04-15T11:55:17;1.45;;;0.60;;
47922;SDS011;33688;44.354;9.228;2023-04-15T11:57:44;1.85;;;0.70;;
47922;SDS011;33688;44.354;9.228;2023-04-15T12:00:12;0.77;;;0.60;;
47922;SDS011;33688;44.354;9.228;2023-04-15T12:02:38;1.40;;;0.40;;
47922;SDS011;33688;44.354;9.228;2023-04-15T12:05:04;1.10;;;0.65;;
47922;SDS011;33688;44.354;9.228;2023-04-15T12:13:09;1.08;;;0.60;;
47922;SDS011;33688;44.354;9.228;2023-04-15T12:15:37;2.15;;;0.60;;
47922;SDS011;33688;44.354;9.228;2023-04-15T12:18:03;1.88;;;0.50;;
47922;SDS011;33688;44.354;9.228;2023-04-15T12:20:29;0.47;;;0.40;;
47922;SDS011;33688;44.354;9.228;2023-04-15T12:23:04;0.50;;;0.40;;
47922;SDS011;33688;44.354;9.228;2023-04-15T12:25:33;2.35;;;0.50;;
47922;SDS011;33688;44.354;9.228;2023-04-15T12:27:59;1.75;;;0.70;;
47922;SDS011;33688;44.354;9.228;2023-04-15T12:30:27;1.77;;;0.40;;
47922;SDS011;33688;44.354;9.228;2023-04-15T12:32:52;0.88;;;0.52;;
47922;SDS011;33688;44.354;9.228;2023-04-15T12:35:20;2.88;;;0.65;;
47922;SDS011;33688;44.354;9.228;2023-04-15T12:37:47;0.80;;;0.50;;
47922;SDS011;33688;44.354;9.228;2023-04-15T12:40:12;1.15;;;0.60;;
47922;SDS011;33688;44.354;9.228;2023-04-15T12:42:38;8.27;;;1.25;;
47922;SDS011;33688;44.354;9.228;2023-04-15T12:45:04;0.75;;;0.40;;
47922;SDS011;33688;44.354;9.228;2023-04-15T12:47:30;1.55;;;0.70;;
47922;SDS011;33688;44.354;9.228;2023-04-15T12:49:56;2.13;;;0.88;;
47922;SDS011;33688;44.354;9.228;2023-04-15T12:52:22;3.70;;;0.70;;
47922;SDS011;33688;44.354;9.228;2023-04-15T12:54:48;0.85;;;0.70;;
47922;SDS011;33688;44.354;9.228;2023-04-15T12:57:14;1.45;;;0.55;;
47922;SDS011;33688;44.354;9.228;2023-04-15T12:59:39;0.95;;;0.45;;
47922;SDS011;33688;44.354;9.228;2023-04-15T13:02:05;1.55;;;0.50;;
47922;SDS011;33688;44.354;9.228;2023-04-15T13:04:31;1.80;;;0.60;;
47922;SDS011;33688;44.354;9.228;2023-04-15T13:06:57;1.45;;;0.73;;
47922;SDS011;33688;44.354;9.228;2023-04-15T13:09:22;0.88;;;0.50;;
47922;SDS011;33688;44.354;9.228;2023-04-15T13:14:34;0.63;;;0.43;;
47922;SDS011;33688;44.354;9.228;2023-04-15T13:17:00;1.15;;;0.70;;
47922;SDS011;33688;44.354;9.228;2023-04-15T13:19:26;0.68;;;0.40;;
47922;SDS011;33688;44.354;9.228;2023-04-15T13:21:52;0.95;;;0.57;;
47922;SDS011;33688;44.354;9.228;2023-04-15T13:24:18;0.75;;;0.40;;
47922;SDS011;33688;44.354;9.228;2023-04-15T13:26:43;1.05;;;0.40;;
47922;SDS011;33688;44.354;9.228;2023-04-15T13:29:09;1.90;;;0.77;;
47922;SDS011;33688;44.354;9.228;2023-04-15T13:31:35;2.38;;;0.50;;
47922;SDS011;33688;44.354;9.228;2023-04-15T13:34:01;1.40;;;0.82;;
47922;SDS011;33688;44.354;9.228;2023-04-15T13:36:27;2.60;;;0.85;;
47922;SDS011;33688;44.354;9.228;2023-04-15T13:38:53;0.82;;;0.60;;
47922;SDS011;33688;44.354;9.228;2023-04-15T13:41:19;1.63;;;0.65;;
47922;SDS011;33688;44.354;9.228;2023-04-15T13:43:45;1.67;;;0.57;;
47922;SDS011;33688;44.354;9.228;2023-04-15T13:46:11;1.15;;;0.45;;
47922;SDS011;33688;44.354;9.228;2023-04-15T13:48:36;0.63;;;0.40;;
47922;SDS011;33688;44.354;9.228;2023-04-15T13:51:03;0.40;;;0.32;;
47922;SDS011;33688;44.354;9.228;2023-04-15T13:53:29;0.98;;;0.40;;
47922;SDS011;33688;44.354;9.228;2023-04-15T13:55:55;0.52;;;0.40;;
47922;SDS011;33688;44.354;9.228;2023-04-15T13:58:20;1.25;;;0.60;;
47922;SDS011;33688;44.354;9.228;2023-04-15T14:00:46;0.45;;;0.35;;
47922;SDS011;33688;44.354;9.228;2023-04-15T14:03:12;0.47;;;0.30;;
47922;SDS011;33688;44.354;9.228;2023-04-15T14:05:39;1.17;;;0.40;;
47922;SDS011;33688;44.354;9.228;2023-04-15T14:08:04;0.65;;;0.50;;
47922;SDS011;33688;44.354;9.228;2023-04-15T14:10:31;1.90;;;0.77;;
47922;SDS011;33688;44.354;9.228;2023-04-15T14:12:56;1.42;;;0.60;;
47922;SDS011;33688;44.354;9.228;2023-04-15T14:15:22;0.80;;;0.47;;
47922;SDS011;33688;44.354;9.228;2023-04-15T14:17:48;1.30;;;0.32;;
47922;SDS011;33688;44.354;9.228;2023-04-15T14:20:13;0.55;;;0.40;;
47922;SDS011;33688;44.354;9.228;2023-04-15T14:22:39;1.63;;;0.73;;
47922;SDS011;33688;44.354;9.228;2023-04-15T14:25:05;0.77;;;0.45;;
47922;SDS011;33688;44.354;9.228;2023-04-15T14:27:31;0.50;;;0.35;;
47922;SDS011;33688;44.354;9.228;2023-04-15T14:29:57;0.90;;;0.43;;
47922;SDS011;33688;44.354;9.228;2023-04-15T14:32:24;0.55;;;0.55;;
47922;SDS011;33688;44.354;9.228;2023-04-15T14:34:50;1.00;;;0.40;;
47922;SDS011;33688;44.354;9.228;2023-04-15T14:37:15;2.58;;;0.68;;
47922;SDS011;33688;44.354;9.228;2023-04-15T14:39:41;0.80;;;0.30;;
47922;SDS011;33688;44.354;9.228;2023-04-15T14:42:07;1.25;;;0.50;;
47922;SDS011;33688;44.354;9.228;2023-04-15T14:44:32;0.93;;;0.40;;
47922;SDS011;33688;44.354;9.228;2023-04-15T14:46:58;1.15;;;0.60;;
47922;SDS011;33688;44.354;9.228;2023-04-15T14:52:12;0.45;;;0.45;;
47922;SDS011;33688;44.354;9.228;2023-04-15T14:54:38;1.08;;;0.43;;
47922;SDS011;33688;44.354;9.228;2023-04-15T14:57:03;0.82;;;0.50;;
47922;SDS011;33688;44.354;9.228;2023-04-15T14:59:30;0.55;;;0.40;;
47922;SDS011;33688;44.354;9.228;2023-04-15T15:01:56;0.65;;;0.35;;
47922;SDS011;33688;44.354;9.228;2023-04-15T15:04:21;0.68;;;0.40;;
47922;SDS011;33688;44.354;9.228;2023-04-15T15:06:47;0.75;;;0.30;;
47922;SDS011;33688;44.354;9.228;2023-04-15T15:09:12;0.52;;;0.32;;
47922;SDS011;33688;44.354;9.228;2023-04-15T15:11:38;0.50;;;0.40;;
47922;SDS011;33688;44.354;9.228;2023-04-15T15:14:05;1.05;;;0.50;;
47922;SDS011;33688;44.354;9.228;2023-04-15T15:16:30;0.65;;;0.20;;
47922;SDS011;33688;44.354;9.228;2023-04-15T15:18:56;0.30;;;0.30;;
47922;SDS011;33688;44.354;9.228;2023-04-15T15:21:22;0.75;;;0.40;;
47922;SDS011;33688;44.354;9.228;2023-04-15T15:23:48;0.50;;;0.25;;
47922;SDS011;33688;44.354;9.228;2023-04-15T15:26:14;0.65;;;0.40;;
47922;SDS011;33688;44.354;9.228;2023-04-15T15:28:39;1.02;;;0.45;;
47922;SDS011;33688;44.354;9.228;2023-04-15T15:31:06;0.57;;;0.30;;
47922;SDS011;33688;44.354;9.228;2023-04-15T15:33:31;0.98;;;0.50;;
47922;SDS011;33688;44.354;9.228;2023-04-15T15:35:57;1.10;;;0.70;;